createdAt,value
2018-09-04T00:00:03.216Z,16.50
2018-09-04T00:05:07.084Z,16.60
2018-09-04T00:10:10.708Z,16.50
2018-09-04T00:15:14.340Z,16.30
2018-09-04T00:20:17.911Z,16.20
2018-09-04T00:25:21.559Z,16.10
2018-09-04T00:30:25.143Z,16.20
2018-09-04T00:35:28.715Z,16.20
2018-09-04T00:40:32.339Z,16.20
2018-09-04T00:45:36.031Z,16.20
2018-09-04T00:50:40.064Z,16.30
2018-09-04T00:55:45.332Z,16.30
2018-09-04T01:00:48.934Z,16.20
2018-09-04T01:05:52.552Z,16.10
2018-09-04T01:10:56.138Z,16.10
2018-09-04T01:16:00.286Z,16.10
2018-09-04T01:21:03.865Z,16.00
2018-09-04T01:26:07.571Z,15.90
2018-09-04T01:31:11.623Z,15.90
2018-09-04T01:36:15.504Z,15.80
2018-09-04T01:41:19.075Z,15.70
2018-09-04T01:46:22.684Z,15.70
2018-09-04T01:51:26.935Z,15.60
2018-09-04T01:56:30.514Z,15.50
2018-09-04T02:01:35.112Z,15.60
2018-09-04T02:06:38.719Z,15.60
2018-09-04T02:11:42.298Z,15.60
2018-09-04T02:16:46.654Z,15.60
2018-09-04T02:21:51.003Z,15.50
2018-09-04T02:26:54.676Z,15.50
2018-09-04T02:31:58.516Z,15.40
2018-09-04T02:37:02.449Z,15.40
2018-09-04T02:42:06.860Z,15.40
2018-09-04T02:47:10.411Z,15.40
2018-09-04T02:52:14.305Z,15.30
2018-09-04T02:57:18.683Z,15.30
2018-09-04T03:02:22.392Z,15.30
2018-09-04T03:07:25.975Z,15.20
2018-09-04T03:12:29.577Z,15.20
2018-09-04T03:17:33.702Z,15.10
2018-09-04T03:22:37.324Z,15.20
2018-09-04T03:27:40.925Z,15.10
2018-09-04T03:32:44.532Z,15.10
2018-09-04T03:37:48.122Z,15.00
2018-09-04T03:42:51.919Z,15.00
2018-09-04T03:47:55.970Z,15.00
2018-09-04T03:52:59.540Z,15.00
2018-09-04T03:58:04.139Z,14.90
2018-09-04T04:03:24.733Z,14.90
2018-09-04T04:08:29.052Z,15.00
2018-09-04T04:13:32.674Z,15.00
2018-09-04T04:18:36.372Z,15.10
2018-09-04T04:23:40.656Z,15.20
2018-09-04T04:28:44.289Z,15.20
2018-09-04T04:33:48.183Z,15.30
2018-09-04T04:38:51.914Z,15.40
2018-09-04T04:43:55.499Z,15.40
2018-09-04T04:48:59.108Z,15.60
2018-09-04T04:54:03.010Z,15.70
2018-09-04T04:59:06.735Z,15.70
2018-09-04T05:04:26.440Z,15.80
2018-09-04T05:09:30.094Z,16.00
2018-09-04T05:14:33.828Z,16.00
2018-09-04T05:19:37.455Z,16.20
2018-09-04T05:24:41.392Z,16.30
2018-09-04T05:29:45.344Z,16.30
2018-09-04T05:34:49.276Z,16.40
2018-09-04T05:39:52.864Z,16.50
2018-09-04T05:44:56.892Z,16.50
2018-09-04T05:50:00.552Z,16.50
2018-09-04T05:55:05.249Z,16.50
2018-09-04T06:00:12.549Z,16.60
2018-09-04T06:05:16.135Z,16.70
2018-09-04T06:10:19.932Z,16.90
2018-09-04T06:15:24.481Z,16.90
2018-09-04T06:20:28.149Z,17.10
2018-09-04T06:25:32.159Z,17.30
2018-09-04T06:30:36.769Z,17.40
2018-09-04T06:35:40.384Z,17.50
2018-09-04T06:40:44.175Z,17.60
2018-09-04T06:45:47.762Z,17.70
2018-09-04T06:50:52.088Z,17.80
2018-09-04T06:55:55.965Z,17.80
2018-09-04T07:00:59.550Z,17.90
2018-09-04T07:06:03.994Z,18.00
2018-09-04T07:11:07.572Z,18.10
2018-09-04T07:16:11.175Z,18.10
2018-09-04T07:21:15.014Z,18.10
2018-09-04T07:26:19.076Z,18.00
2018-09-04T07:31:22.979Z,17.90
2018-09-04T07:36:26.604Z,18.00
2018-09-04T07:41:30.248Z,18.10
2018-09-04T07:46:34.058Z,18.10
2018-09-04T07:51:37.745Z,18.20
2018-09-04T07:56:41.491Z,18.30
2018-09-04T08:01:45.560Z,18.20
2018-09-04T08:06:49.366Z,18.20
2018-09-04T08:11:53.071Z,18.40
2018-09-04T08:16:57.588Z,18.70
2018-09-04T08:22:01.219Z,19.20
2018-09-04T08:27:05.131Z,19.30
2018-09-04T08:32:08.724Z,19.90
2018-09-04T08:37:12.393Z,20.40
2018-09-04T08:42:16.139Z,20.40
2018-09-04T08:47:21.118Z,21.40
2018-09-04T08:52:24.708Z,21.60
2018-09-04T08:57:28.363Z,21.20
2018-09-04T09:02:32.348Z,20.80
2018-09-04T09:07:37.581Z,21.00
2018-09-04T09:12:42.097Z,21.20
2018-09-04T09:17:48.148Z,21.40
2018-09-04T09:22:52.724Z,21.60
2018-09-04T09:27:56.543Z,21.60
2018-09-04T09:33:02.271Z,21.40
2018-09-04T09:38:06.748Z,21.40
2018-09-04T09:43:10.713Z,21.10
2018-09-04T09:48:14.914Z,21.30
2018-09-04T09:53:18.663Z,21.50
2018-09-04T09:58:23.236Z,21.70
2018-09-04T10:03:32.334Z,22.00
2018-09-04T10:08:37.107Z,22.00
2018-09-04T10:13:40.735Z,22.50
2018-09-04T10:18:44.331Z,22.90
2018-09-04T10:23:47.987Z,23.50
2018-09-04T10:28:51.611Z,23.80
2018-09-04T10:33:55.528Z,24.00
2018-09-04T10:39:04.538Z,24.00
2018-09-04T10:44:08.448Z,24.30
2018-09-04T10:49:12.073Z,24.50
2018-09-04T10:54:15.744Z,24.70
2018-09-04T10:59:19.841Z,24.80
2018-09-04T11:04:23.528Z,24.90
2018-09-04T11:09:27.159Z,25.00
2018-09-04T11:14:30.751Z,24.90
2018-09-04T11:19:34.536Z,25.10
2018-09-04T11:24:38.109Z,25.00
2018-09-04T11:29:42.155Z,24.80
2018-09-04T11:34:46.136Z,25.00
2018-09-04T11:39:49.799Z,25.40
2018-09-04T11:44:55.024Z,25.70
2018-09-04T11:49:58.624Z,26.10
2018-09-04T11:55:02.245Z,26.60
2018-09-04T12:00:07.130Z,26.10
2018-09-04T12:05:10.820Z,26.10
2018-09-04T12:10:14.559Z,26.90
2018-09-04T12:15:18.179Z,27.40
2018-09-04T12:20:38.788Z,27.40
2018-09-04T12:25:45.822Z,27.40
2018-09-04T12:30:50.726Z,27.70
2018-09-04T12:35:55.214Z,28.00
2018-09-04T12:41:10.969Z,27.60
2018-09-04T12:46:14.700Z,27.40
2018-09-04T12:51:18.413Z,27.60
2018-09-04T12:56:22.337Z,27.80
2018-09-04T13:01:26.561Z,27.80
2018-09-04T13:06:30.929Z,27.70
2018-09-04T13:11:34.494Z,27.80
2018-09-04T13:16:40.283Z,26.80
2018-09-04T13:21:44.135Z,26.50
2018-09-04T13:26:47.833Z,26.30
2018-09-04T13:31:52.570Z,26.50
2018-09-04T13:36:56.522Z,26.20
2018-09-04T13:42:00.227Z,26.70
2018-09-04T13:47:04.832Z,27.00
2018-09-04T13:52:08.430Z,26.90
2018-09-04T13:57:12.410Z,27.00
2018-09-04T14:02:16.035Z,26.80
2018-09-04T14:07:19.679Z,27.10
2018-09-04T14:12:23.420Z,27.40
2018-09-04T14:17:27.328Z,27.50
2018-09-04T14:22:31.440Z,27.50
2018-09-04T14:27:35.584Z,27.60
2018-09-04T14:32:39.192Z,27.70
2018-09-04T14:37:43.067Z,28.20
2018-09-04T14:42:46.894Z,28.50
2018-09-04T14:47:50.689Z,28.20
2018-09-04T14:52:54.291Z,28.70
2018-09-04T14:57:58.190Z,28.90
2018-09-04T15:03:06.765Z,28.90
2018-09-04T15:08:11.482Z,28.90
2018-09-04T15:13:15.627Z,29.00
2018-09-04T15:18:19.234Z,28.90
2018-09-04T15:23:23.092Z,28.60
2018-09-04T15:28:26.700Z,28.60
2018-09-04T15:33:30.477Z,28.40
2018-09-04T15:38:35.939Z,28.30
2018-09-04T15:48:43.409Z,27.90
2018-09-04T15:58:51.075Z,27.50
2018-09-04T16:03:54.823Z,27.70
2018-09-04T16:09:00.342Z,28.10
2018-09-04T16:14:03.922Z,28.50
2018-09-04T16:19:09.488Z,28.80
2018-09-04T16:24:13.052Z,29.00
2018-09-04T16:29:16.708Z,29.00
2018-09-04T16:34:24.226Z,28.90
2018-09-04T16:39:28.696Z,28.80
2018-09-04T16:44:32.291Z,28.60
2018-09-04T16:49:36.262Z,28.50
2018-09-04T16:54:40.131Z,28.50
2018-09-04T16:59:43.803Z,28.30
2018-09-04T17:04:47.489Z,28.20
2018-09-04T17:09:51.092Z,28.40
2018-09-04T17:14:54.908Z,28.30
2018-09-04T17:19:58.628Z,28.00
2018-09-04T17:25:03.692Z,28.90
2018-09-04T17:30:07.349Z,27.10
2018-09-04T17:35:10.962Z,26.80
2018-09-04T17:40:14.595Z,26.50
2018-09-04T17:45:18.231Z,26.30
2018-09-04T17:50:21.867Z,25.90
2018-09-04T17:55:25.492Z,25.90
2018-09-04T18:00:29.212Z,25.40
2018-09-04T18:05:32.930Z,25.10
2018-09-04T18:15:40.005Z,24.80
2018-09-04T18:20:43.676Z,24.60
2018-09-04T18:25:47.250Z,24.40
2018-09-04T18:30:50.895Z,24.20
2018-09-04T18:35:54.684Z,24.10
2018-09-04T18:40:59.681Z,23.90
2018-09-04T18:46:03.401Z,23.60
2018-09-04T18:51:07.204Z,23.40
2018-09-04T18:56:10.984Z,23.20
2018-09-04T19:01:14.627Z,23.10
2018-09-04T19:06:18.963Z,22.90
2018-09-04T19:11:23.313Z,22.80
2018-09-04T19:16:27.696Z,22.60
2018-09-04T19:21:32.094Z,22.50
2018-09-04T19:26:36.086Z,22.30
2018-09-04T19:31:39.710Z,22.20
2018-09-04T19:36:43.748Z,21.90
2018-09-04T19:41:47.465Z,21.80
2018-09-04T19:46:51.066Z,21.70
2018-09-04T19:51:54.646Z,21.60
2018-09-04T19:57:45.259Z,21.60
2018-09-04T20:02:48.971Z,21.70
2018-09-04T20:07:52.648Z,21.70
2018-09-04T20:12:56.213Z,21.80
2018-09-04T20:18:00.721Z,21.80
2018-09-04T20:23:04.297Z,21.60
2018-09-04T20:28:07.909Z,21.50
2018-09-04T20:33:11.490Z,21.30
2018-09-04T20:38:15.511Z,21.30
2018-09-04T20:43:19.376Z,21.40
2018-09-04T20:48:23.036Z,21.30
2018-09-04T20:53:26.598Z,21.10
2018-09-04T20:58:41.523Z,21.00
2018-09-04T21:03:57.269Z,20.80
2018-09-04T21:09:06.694Z,20.70
2018-09-04T21:14:10.323Z,20.60
2018-09-04T21:19:14.443Z,20.50
2018-09-04T21:24:18.280Z,20.40
2018-09-04T21:29:25.435Z,20.30
2018-09-04T21:34:29.104Z,20.30
2018-09-04T21:39:32.700Z,20.10
2018-09-04T21:44:36.367Z,20.00
2018-09-04T21:49:42.008Z,19.90
2018-09-04T21:54:46.533Z,19.80
2018-09-04T21:59:50.349Z,19.70
2018-09-04T22:04:55.067Z,19.60
2018-09-04T22:09:59.029Z,19.50
2018-09-04T22:15:02.775Z,19.40
2018-09-04T22:20:07.417Z,19.40
2018-09-04T22:25:12.191Z,19.40
2018-09-04T22:30:17.076Z,19.40
2018-09-04T22:35:20.899Z,19.50
2018-09-04T22:40:24.799Z,19.50
2018-09-04T22:45:28.656Z,19.50
2018-09-04T22:50:37.743Z,19.50
2018-09-04T22:55:41.421Z,19.40
2018-09-04T23:00:45.826Z,19.40
2018-09-04T23:05:49.472Z,19.40
2018-09-04T23:10:53.606Z,19.40
2018-09-04T23:15:57.552Z,19.30
2018-09-04T23:21:01.259Z,19.30
2018-09-04T23:26:05.349Z,19.20
2018-09-04T23:31:08.955Z,19.30
2018-09-04T23:36:12.555Z,19.20
2018-09-04T23:41:16.192Z,19.20
2018-09-04T23:46:19.802Z,19.10
2018-09-04T23:51:24.354Z,19.10
2018-09-04T23:56:28.975Z,19.00
